Time;durP1;ratioP1;P1;durP2;ratioP2;P2;SDS_P1;SDS_P2;PMS_P1;PMS_P2;Temp;Humidity;BMP_temperature;BMP_pressure;BME280_temperature;BME280_humidity;BME280_pressure;Samples;Min_cycle;Max_cycle;Signal;HPM_P1;HPM_P2
2022/12/02 00:01:51;;;;;;;56.20;31.73;;;;;;;3.82;69.30;100450.78;4452177;32;33881;-79
2022/12/02 00:04:22;;;;;;;52.35;31.83;;;;;;;3.27;70.59;100455.59;4438767;32;36788;-77
2022/12/02 00:06:51;;;;;;;56.50;34.90;;;;;;;3.64;69.26;100450.31;4454127;32;34776;-79
2022/12/02 00:09:32;;;;;;;58.03;32.22;;;;;;;2.72;72.25;100447.88;4425814;32;33115;-81
2022/12/02 00:12:32;;;;;;;53.83;32.50;;;;;;;3.29;71.04;100456.22;4425072;32;33364;-81
2022/12/02 00:15:02;;;;;;;51.35;30.20;;;;;;;3.01;72.06;100456.00;4438709;32;34119;-81
2022/12/02 00:17:30;;;;;;;53.30;31.55;;;;;;;3.37;70.56;100454.47;4438483;32;34051;-82
2022/12/02 00:19:57;;;;;;;52.15;30.50;;;;;;;3.39;69.52;100458.66;4449978;32;33563;-81
2022/12/02 00:22:25;;;;;;;53.15;30.80;;;;;;;2.93;70.90;100455.25;4469674;32;34681;-81
2022/12/02 00:24:53;;;;;;;52.25;30.77;;;;;;;3.20;70.37;100451.97;4442121;32;34180;-81
2022/12/02 00:27:20;;;;;;;56.03;32.38;;;;;;;3.25;70.66;100460.28;4455130;32;35137;-79
2022/12/02 00:29:48;;;;;;;50.42;30.08;;;;;;;2.75;72.16;100456.41;4469151;32;33607;-80
2022/12/02 00:32:16;;;;;;;50.17;29.87;;;;;;;2.79;72.19;100451.53;4469768;32;34793;-81
2022/12/02 00:34:43;;;;;;;50.30;29.45;;;;;;;2.71;72.29;100456.97;4470149;32;35610;-78
2022/12/02 00:37:11;;;;;;;49.47;30.27;;;;;;;2.57;73.14;100456.72;4455388;32;34588;-78
2022/12/02 00:39:38;;;;;;;46.65;28.77;;;;;;;3.21;71.38;100455.50;4467631;32;34468;-79
2022/12/02 00:42:05;;;;;;;41.97;26.65;;;;;;;2.64;73.00;100446.97;4455186;32;34031;-78
2022/12/02 00:47:19;;;;;;;40.47;24.73;;;;;;;2.93;71.95;100448.03;4453481;32;33888;-79
2022/12/02 00:49:47;;;;;;;40.08;25.60;;;;;;;3.24;71.36;100447.06;4457140;32;33261;-81
2022/12/02 00:52:14;;;;;;;41.92;25.52;;;;;;;3.16;71.46;100442.62;4471088;32;34741;-79
2022/12/02 00:54:42;;;;;;;37.25;23.52;;;;;;;3.33;71.68;100440.63;4466370;32;34968;-80
2022/12/02 00:57:09;;;;;;;40.30;24.35;;;;;;;2.79;73.72;100443.50;4462074;32;34128;-79
2022/12/02 00:59:37;;;;;;;39.15;22.40;;;;;;;2.87;73.19;100446.09;4459966;32;33301;-81
2022/12/02 01:02:04;;;;;;;36.78;22.35;;;;;;;2.73;73.56;100445.03;4460803;32;34015;-81
2022/12/02 01:04:32;;;;;;;41.42;24.05;;;;;;;2.78;73.47;100439.97;4462699;32;33966;-79
2022/12/02 01:06:59;;;;;;;37.20;22.55;;;;;;;2.93;73.48;100441.84;4460506;32;33654;-82
2022/12/02 01:09:27;;;;;;;37.17;21.90;;;;;;;2.58;74.90;100434.28;4458806;32;33589;-79
2022/12/02 01:11:54;;;;;;;37.95;22.37;;;;;;;2.52;75.15;100426.94;4452576;32;34830;-78
2022/12/02 01:14:21;;;;;;;37.17;22.17;;;;;;;2.88;73.76;100434.38;4462007;32;34283;-78
2022/12/02 01:16:49;;;;;;;40.65;23.25;;;;;;;2.41;76.00;100430.06;4459142;32;33429;-80
2022/12/02 01:19:16;;;;;;;42.17;24.05;;;;;;;2.73;74.90;100428.13;4461574;32;35076;-76
2022/12/02 01:21:44;;;;;;;40.80;21.42;;;;;;;2.66;75.33;100426.19;4468208;32;34049;-81
2022/12/02 01:24:11;;;;;;;41.70;21.95;;;;;;;3.24;73.30;100425.59;4469082;32;34324;-80
2022/12/02 01:26:39;;;;;;;38.80;22.05;;;;;;;2.94;74.57;100427.44;4468305;32;33979;-80
2022/12/02 01:29:06;;;;;;;38.17;21.60;;;;;;;3.46;72.44;100430.06;4468116;32;33548;-79
2022/12/02 01:31:34;;;;;;;39.10;22.30;;;;;;;3.18;73.32;100418.31;4468938;32;34647;-79
2022/12/02 01:34:02;;;;;;;9.43;5.20;;;;;;;2.88;74.66;100423.63;4469151;32;33704;-78
2022/12/02 01:36:29;;;;;;;39.03;22.13;;;;;;;2.63;76.12;100420.34;4469284;32;33958;-79
2022/12/02 01:38:57;;;;;;;37.75;21.70;;;;;;;2.42;76.65;100413.00;4454573;32;33085;-78
2022/12/02 01:41:24;;;;;;;37.75;22.27;;;;;;;3.00;74.50;100413.28;4467329;32;33921;-79
2022/12/02 01:43:52;;;;;;;34.53;19.25;;;;;;;3.13;73.62;100418.03;4467912;32;35110;-79
2022/12/02 01:46:19;;;;;;;34.38;19.12;;;;;;;3.42;72.77;100414.53;4454947;32;35131;-78
2022/12/02 01:48:48;;;;;;;35.63;20.67;;;;;;;2.69;74.08;100416.13;4454513;32;33318;-78
2022/12/02 01:51:15;;;;;;;32.38;17.55;;;;;;;3.36;72.53;100407.22;4467934;32;34449;-78
2022/12/02 01:53:45;;;;;;;35.25;19.67;;;;;;;3.06;73.86;100407.22;4468236;32;34089;-79
2022/12/02 01:56:13;;;;;;;33.60;18.05;;;;;;;3.13;73.30;100413.50;4454016;32;34459;-80
2022/12/02 01:58:40;;;;;;;33.63;18.52;;;;;;;2.89;73.80;100414.56;4468397;32;34216;-80
2022/12/02 02:01:31;;;;;;;28.20;16.40;;;;;;;3.30;72.22;100408.78;4468196;32;34430;-79
2022/12/02 02:03:59;;;;;;;32.88;18.15;;;;;;;3.06;72.73;100413.41;4468479;32;34293;-78
2022/12/02 02:06:34;;;;;;;31.35;17.25;;;;;;;2.67;74.84;100408.25;4441986;32;33414;-78
2022/12/02 02:09:03;;;;;;;27.95;16.62;;;;;;;3.38;72.24;100408.69;4453353;32;34289;-76
2022/12/02 02:11:30;;;;;;;30.17;16.17;;;;;;;2.81;74.46;100415.50;4455010;32;33970;-81
2022/12/02 02:13:59;;;;;;;28.85;16.35;;;;;;;2.80;73.91;100413.00;4469194;32;34177;-77
2022/12/02 02:16:27;;;;;;;26.75;15.40;;;;;;;2.79;74.28;100409.50;4453989;32;34742;-77
2022/12/02 02:18:54;;;;;;;28.52;16.10;;;;;;;2.81;73.89;100417.34;4468176;32;33445;-79
2022/12/02 02:21:27;;;;;;;27.52;16.12;;;;;;;3.02;72.75;100420.16;4468944;32;33798;-78
2022/12/02 02:23:55;;;;;;;27.75;15.57;;;;;;;3.44;71.22;100420.53;4432628;32;32962;-78
2022/12/02 02:26:23;;;;;;;27.98;15.85;;;;;;;3.18;71.72;100424.50;4453092;32;34316;-78
2022/12/02 02:28:50;;;;;;;27.35;15.13;;;;;;;3.06;72.02;100425.97;4452737;32;33577;-81
2022/12/02 02:31:18;;;;;;;27.33;15.38;;;;;;;3.07;72.15;100425.81;4458340;32;33943;-78
2022/12/02 02:33:47;;;;;;;26.77;15.05;;;;;;;3.21;71.49;100420.63;4468810;32;33882;-80
2022/12/02 02:36:15;;;;;;;27.20;15.57;;;;;;;3.06;72.66;100418.75;4454713;32;33959;-82
2022/12/02 02:38:43;;;;;;;26.37;15.35;;;;;;;3.33;71.58;100426.38;4430746;32;33162;-79
2022/12/02 02:41:11;;;;;;;31.62;17.08;;;;;;;2.96;72.80;100423.56;4453193;32;34785;-79
2022/12/02 02:43:38;;;;;;;29.27;16.27;;;;;;;3.05;72.18;100427.81;4439181;32;33930;-81
2022/12/02 02:46:06;;;;;;;27.23;16.33;;;;;;;2.84;72.77;100430.37;4438616;32;33908;-78
2022/12/02 02:48:35;;;;;;;28.95;16.65;;;;;;;3.27;71.22;100423.41;4438394;32;34339;-79
2022/12/02 02:51:02;;;;;;;27.10;15.82;;;;;;;2.97;71.68;100419.84;4452924;32;34589;-83
2022/12/02 02:53:30;;;;;;;26.48;15.98;;;;;;;2.83;73.15;100423.34;4453148;32;34266;-79
2022/12/02 02:55:58;;;;;;;26.90;15.63;;;;;;;2.96;72.24;100412.00;4454448;32;35303;-78
2022/12/02 02:58:27;;;;;;;5.50;4.10;;;;;;;2.70;73.15;100423.97;4452926;32;33807;-80
2022/12/02 03:00:59;;;;;;;25.42;15.35;;;;;;;3.00;71.64;100414.16;4452483;32;33557;-79
2022/12/02 03:03:34;;;;;;;26.20;15.10;;;;;;;2.82;72.14;100409.13;4451268;32;34171;-81
2022/12/02 03:06:03;;;;;;;25.07;14.53;;;;;;;2.95;71.45;100411.16;4454742;32;33866;-80
2022/12/02 03:08:31;;;;;;;25.83;15.73;;;;;;;2.44;72.64;100406.44;4448467;32;33269;-79
2022/12/02 03:11:00;;;;;;;26.23;14.95;;;;;;;2.33;73.81;100409.50;4453487;32;33876;-79
2022/12/02 03:13:30;;;;;;;25.02;15.15;;;;;;;2.95;71.60;100413.03;4438682;32;35281;-80
2022/12/02 03:15:58;;;;;;;24.27;14.65;;;;;;;3.01;70.89;100405.09;4452693;32;34769;-77
2022/12/02 03:18:25;;;;;;;23.27;14.23;;;;;;;2.89;71.11;100403.84;4443402;32;34343;-80
2022/12/02 03:20:52;;;;;;;24.77;14.43;;;;;;;2.87;71.58;100408.56;4467910;32;34842;-82
2022/12/02 03:23:20;;;;;;;24.30;14.20;;;;;;;2.95;70.85;100413.03;4451456;32;35095;-79
2022/12/02 03:25:48;;;;;;;3.12;1.95;;;;;;;3.02;70.40;100408.59;4451552;32;34716;-81
2022/12/02 03:28:15;;;;;;;24.08;14.65;;;;;;;3.09;70.16;100406.84;4438314;32;33332;-79
2022/12/02 03:30:43;;;;;;;25.55;15.07;;;;;;;3.03;70.59;100400.38;4452355;32;34655;-82
2022/12/02 03:33:11;;;;;;;25.15;14.65;;;;;;;2.67;71.59;100398.34;4452745;32;34031;-81
2022/12/02 03:35:38;;;;;;;23.92;14.50;;;;;;;2.76;71.34;100395.59;4441689;32;34671;-78
2022/12/02 03:38:06;;;;;;;26.87;14.15;;;;;;;2.98;70.47;100397.41;4426562;32;33898;-79
2022/12/02 03:40:33;;;;;;;25.40;14.48;;;;;;;3.08;70.41;100394.44;4436933;32;34041;-81
2022/12/02 03:43:01;;;;;;;24.52;14.30;;;;;;;2.86;70.53;100401.56;4436687;32;33826;-79
2022/12/02 03:45:28;;;;;;;25.40;14.60;;;;;;;3.07;70.37;100403.53;4435267;32;34101;-79
2022/12/02 03:47:56;;;;;;;24.08;14.45;;;;;;;2.80;70.89;100397.75;4435223;32;33469;-80
2022/12/02 03:50:23;;;;;;;25.55;14.75;;;;;;;2.90;71.19;100397.50;4436512;32;33886;-80
2022/12/02 03:52:51;;;;;;;24.25;14.43;;;;;;;3.10;70.21;100399.63;4460839;32;35145;-80
2022/12/02 03:55:18;;;;;;;25.23;14.43;;;;;;;3.06;70.08;100400.00;4467874;32;33722;-79
2022/12/02 03:57:45;;;;;;;11.30;7.37;;;;;;;2.42;72.38;100403.09;4453197;32;34463;-79
2022/12/02 04:00:13;;;;;;;25.20;14.40;;;;;;;2.93;70.95;100401.66;4467343;32;33688;-82
2022/12/02 04:02:42;;;;;;;22.02;13.77;;;;;;;3.08;69.98;100406.00;4467722;32;33776;-79
2022/12/02 04:05:10;;;;;;;23.33;13.98;;;;;;;2.77;71.00;100405.34;4453859;32;33979;-80
2022/12/02 04:07:38;;;;;;;26.40;14.68;;;;;;;2.89;70.77;100411.91;4436667;32;33275;-78
2022/12/02 04:10:06;;;;;;;26.10;14.98;;;;;;;2.81;71.42;100417.34;4463025;32;34072;-85
2022/12/02 04:13:01;;;;;;;22.92;14.20;;;;;;;2.90;70.35;100407.38;4466908;32;35010;-78
2022/12/02 04:15:29;;;;;;;25.37;14.23;;;;;;;2.57;71.96;100411.19;4468951;32;34252;-80
2022/12/02 04:17:57;;;;;;;25.95;14.15;;;;;;;2.51;72.62;100414.59;4469690;32;34206;-81
2022/12/02 04:20:24;;;;;;;27.15;15.48;;;;;;;2.64;71.88;100412.12;4464701;32;33889;-81
2022/12/02 04:22:51;;;;;;;26.45;15.25;;;;;;;3.08;70.41;100411.38;4455513;32;34298;-80
2022/12/02 04:25:19;;;;;;;25.92;15.63;;;;;;;3.17;69.50;100411.28;4469790;32;33618;-79
2022/12/02 04:27:46;;;;;;;28.08;16.30;;;;;;;3.06;70.00;100402.66;4464721;32;33215;-79
2022/12/02 04:30:14;;;;;;;26.12;15.10;;;;;;;3.52;68.65;100409.72;4454300;32;33903;-79
2022/12/02 04:32:41;;;;;;;28.25;16.33;;;;;;;3.48;68.70;100413.78;4454052;32;34343;-81
2022/12/02 04:35:08;;;;;;;28.50;15.95;;;;;;;3.67;67.65;100405.16;4452347;32;34058;-78
2022/12/02 04:37:36;;;;;;;24.17;14.35;;;;;;;3.57;67.74;100415.34;4446484;32;33486;-78
2022/12/02 04:40:05;;;;;;;24.52;14.85;;;;;;;3.14;69.44;100407.13;4469878;32;33133;-80
2022/12/02 04:42:32;;;;;;;24.48;14.20;;;;;;;2.75;71.23;100410.88;4469575;32;34248;-81
2022/12/02 04:45:00;;;;;;;25.15;14.07;;;;;;;3.15;70.34;100408.78;4467566;32;34448;-81
2022/12/02 04:47:27;;;;;;;28.27;16.15;;;;;;;3.41;69.23;100415.53;4455146;32;33147;-80
2022/12/02 04:49:55;;;;;;;35.13;17.02;;;;;;;3.20;69.40;100409.06;4469530;32;33826;-81
2022/12/02 04:52:22;;;;;;;30.23;17.42;;;;;;;3.24;69.83;100407.69;4469637;32;35108;-79
2022/12/02 04:54:50;;;;;;;31.98;18.23;;;;;;;3.33;69.01;100407.59;4442216;32;33943;-81
2022/12/02 04:57:17;;;;;;;30.40;16.67;;;;;;;2.93;70.35;100407.00;4424337;32;34292;-79
2022/12/02 04:59:45;;;;;;;24.58;15.50;;;;;;;3.15;70.32;100407.94;4465504;32;33770;-81
2022/12/02 05:02:12;;;;;;;26.05;15.52;;;;;;;3.23;69.73;100413.22;4469363;32;34245;-78
2022/12/02 05:04:40;;;;;;;27.20;16.23;;;;;;;3.43;68.40;100403.59;4469311;32;33918;-79
2022/12/02 05:07:07;;;;;;;30.15;16.42;;;;;;;3.00;70.30;100413.28;4466066;32;33476;-77
2022/12/02 05:09:35;;;;;;;27.65;16.05;;;;;;;3.20;69.74;100411.75;4450516;32;34775;-82
2022/12/02 05:12:02;;;;;;;25.85;15.52;;;;;;;3.71;67.75;100410.97;4438587;32;33687;-80
2022/12/02 05:14:30;;;;;;;26.52;16.08;;;;;;;2.87;69.98;100411.25;4436808;32;34657;-80
2022/12/02 05:16:57;;;;;;;30.30;16.73;;;;;;;3.18;69.43;100410.28;4424218;32;33416;-78
2022/12/02 05:19:25;;;;;;;25.23;15.15;;;;;;;3.33;69.11;100411.13;4458113;32;34793;-79
2022/12/02 05:21:52;;;;;;;25.12;14.90;;;;;;;3.37;68.94;100417.78;4468966;32;34314;-80
2022/12/02 05:24:20;;;;;;;26.35;15.23;;;;;;;2.73;71.43;100420.94;4454950;32;34764;-78
2022/12/02 05:26:47;;;;;;;24.17;15.07;;;;;;;3.22;69.54;100420.44;4426816;32;33692;-77
2022/12/02 05:29:15;;;;;;;25.52;15.15;;;;;;;3.52;68.06;100411.56;4468808;32;33602;-79
2022/12/02 05:31:42;;;;;;;29.55;16.50;;;;;;;3.29;69.13;100415.19;4451057;32;34016;-78
2022/12/02 05:34:09;;;;;;;26.62;15.95;;;;;;;3.34;69.14;100415.44;4452399;32;34026;-78
2022/12/02 05:36:38;;;;;;;27.35;16.15;;;;;;;2.96;70.39;100420.91;4452181;32;33415;-78
2022/12/02 05:39:05;;;;;;;29.27;16.00;;;;;;;2.82;70.67;100417.16;4439385;32;33435;-80
2022/12/02 05:41:32;;;;;;;25.40;15.27;;;;;;;2.45;72.18;100408.09;4448506;32;35404;-79
2022/12/02 05:44:18;;;;;;;30.42;15.65;;;;;;;2.63;71.52;100420.34;4437738;32;33949;-81
2022/12/02 05:46:46;;;;;;;26.65;15.68;;;;;;;2.72;71.39;100418.41;4423895;32;33493;-79
2022/12/02 05:49:20;;;;;;;29.02;16.52;;;;;;;2.75;71.14;100418.91;4449124;32;34014;-79
2022/12/02 05:51:52;;;;;;;26.92;15.60;;;;;;;2.26;73.22;100416.59;4453630;32;35182;-78
2022/12/02 05:54:24;;;;;;;29.75;17.33;;;;;;;2.55;72.36;100415.91;4452255;32;33777;-79
2022/12/02 05:56:52;;;;;;;30.67;18.40;;;;;;;2.70;71.37;100413.25;4452608;32;33261;-79
2022/12/02 05:59:20;;;;;;;14.52;9.35;;;;;;;2.59;71.85;100422.56;4441198;32;34635;-79
2022/12/02 06:01:51;;;;;;;28.90;17.00;;;;;;;2.95;70.30;100419.22;4437459;32;35148;-81
2022/12/02 06:04:22;;;;;;;28.42;15.70;;;;;;;2.70;71.59;100420.44;4453343;32;34863;-80
2022/12/02 06:06:55;;;;;;;28.00;16.33;;;;;;;3.10;69.55;100423.78;4436920;32;34205;-81
2022/12/02 06:09:25;;;;;;;28.50;16.25;;;;;;;2.88;70.02;100421.78;4438473;32;34853;-77
2022/12/02 06:11:52;;;;;;;28.87;16.48;;;;;;;2.47;71.95;100422.12;4425573;32;34083;-86
2022/12/02 06:14:24;;;;;;;5.12;3.55;;;;;;;3.08;70.29;100424.75;4444694;32;85854;-74
2022/12/02 06:16:55;;;;;;;29.42;16.62;;;;;;;3.19;69.18;100433.37;4423702;32;34303;-79
2022/12/02 06:19:43;;;;;;;26.25;16.87;;;;;;;3.17;69.24;100435.41;4465922;32;34167;-78
2022/12/02 06:22:19;;;;;;;30.27;17.30;;;;;;;3.07;69.55;100433.84;4468427;32;34983;-81
2022/12/02 06:24:47;;;;;;;29.63;17.23;;;;;;;3.14;69.57;100435.78;4452150;32;34746;-80
2022/12/02 06:27:16;;;;;;;27.35;16.25;;;;;;;3.06;70.08;100439.38;4453972;32;33413;-74
2022/12/02 06:29:49;;;;;;;31.48;17.92;;;;;;;3.08;69.45;100432.81;4451517;32;34491;-80
2022/12/02 06:32:20;;;;;;;30.73;17.70;;;;;;;3.21;68.91;100442.06;4433380;32;33653;-79
2022/12/02 06:34:50;;;;;;;32.17;18.12;;;;;;;2.67;70.56;100445.75;4438762;32;34604;-76
2022/12/02 06:37:21;;;;;;;31.83;16.98;;;;;;;3.00;69.91;100446.31;4437787;32;33490;-77
2022/12/02 06:39:54;;;;;;;25.00;15.57;;;;;;;2.71;71.07;100449.75;4459526;32;34622;-74
2022/12/02 06:42:42;;;;;;;25.67;15.52;;;;;;;2.83;69.68;100442.09;4467970;32;34877;-71
2022/12/02 06:45:12;;;;;;;28.15;16.50;;;;;;;2.97;69.70;100445.84;4453524;32;34670;-77
2022/12/02 06:47:46;;;;;;;31.87;17.95;;;;;;;3.15;68.93;100458.91;4446859;32;34708;-74
2022/12/02 06:50:26;;;;;;;28.23;17.10;;;;;;;2.94;69.56;100457.75;4437030;32;34932;-73
2022/12/02 06:53:05;;;;;;;26.48;15.60;;;;;;;2.63;70.93;100456.00;4437075;32;33897;-72
2022/12/02 06:55:35;;;;;;;13.05;9.55;;;;;;;2.79;70.11;100452.38;4448686;32;34121;-72
2022/12/02 06:58:32;;;;;;;34.30;17.70;;;;;;;2.98;70.12;100450.19;4453949;32;33379;-72
2022/12/02 07:01:18;;;;;;;26.52;15.52;;;;;;;3.56;67.52;100455.78;4467391;32;33834;-72
2022/12/02 07:03:54;;;;;;;32.17;16.85;;;;;;;3.58;67.24;100459.94;4429175;32;34410;-73
2022/12/02 07:06:26;;;;;;;32.05;16.75;;;;;;;3.27;68.49;100460.13;4423458;32;33693;-74
2022/12/02 07:09:05;;;;;;;27.05;16.05;;;;;;;3.55;67.41;100459.50;4448130;32;34155;-78
2022/12/02 07:11:50;;;;;;;29.05;16.73;;;;;;;3.51;67.31;100452.81;4468429;32;33633;-82
2022/12/02 07:14:24;;;;;;;27.20;16.05;;;;;;;3.43;67.33;100459.09;4466752;32;34171;-77
2022/12/02 07:16:56;;;;;;;31.77;17.70;;;;;;;3.36;67.90;100456.34;4467463;32;33939;-78
2022/12/02 07:19:39;;;;;;;27.40;16.33;;;;;;;3.07;69.34;100468.69;4466377;32;34194;-75
2022/12/02 07:22:33;;;;;;;31.20;18.25;;;;;;;3.43;67.98;100467.16;4437848;32;34655;-85
2022/12/02 07:25:03;;;;;;;1.77;1.30;;;;;;;3.56;67.36;100467.34;4464301;32;34241;-83
2022/12/02 07:27:33;;;;;;;29.70;16.87;;;;;;;3.33;68.71;100471.97;4467764;32;34770;-80
2022/12/02 07:30:02;;;;;;;28.33;17.25;;;;;;;3.47;67.68;100466.59;4437104;32;34455;-74
2022/12/02 07:32:29;;;;;;;30.67;16.65;;;;;;;3.26;68.67;100469.16;4435287;32;33759;-76
2022/12/02 07:34:56;;;;;;;29.83;17.70;;;;;;;3.42;68.69;100477.06;4451555;32;35583;-71
2022/12/02 07:37:24;;;;;;;33.33;16.85;;;;;;;3.48;67.78;100465.59;4449097;32;33996;-77
2022/12/02 07:39:51;;;;;;;30.45;17.25;;;;;;;2.93;69.84;100472.16;4464006;32;32254;-71
2022/12/02 07:42:19;;;;;;;31.67;17.27;;;;;;;3.71;67.21;100467.34;4466258;32;34643;-80
2022/12/02 07:44:46;;;;;;;30.50;16.62;;;;;;;3.32;68.86;100464.94;4450903;32;35268;-78
2022/12/02 07:47:13;;;;;;;33.15;17.98;;;;;;;3.13;69.03;100471.66;4451929;32;33971;-83
2022/12/02 07:49:41;;;;;;;32.83;17.45;;;;;;;2.98;69.75;100469.78;4453554;32;34484;-77
2022/12/02 07:52:08;;;;;;;27.25;17.15;;;;;;;2.59;70.99;100469.94;4454344;32;34668;-71
2022/12/02 07:54:36;;;;;;;38.92;18.73;;;;;;;2.93;69.55;100471.34;4446352;32;32751;-75
2022/12/02 07:57:03;;;;;;;31.52;17.85;;;;;;;2.72;70.82;100469.31;4437674;32;34885;-73
2022/12/02 07:59:31;;;;;;;34.20;18.12;;;;;;;2.61;70.71;100483.97;4448461;32;33664;-71
2022/12/02 08:01:58;;;;;;;10.73;5.80;;;;;;;2.73;70.73;100473.69;4452875;32;33781;-73
2022/12/02 08:04:26;;;;;;;35.35;21.00;;;;;;;2.60;71.50;100477.78;4454267;32;34057;-72
2022/12/02 08:06:53;;;;;;;31.55;18.40;;;;;;;2.97;70.10;100478.00;4451121;32;34262;-72
2022/12/02 08:09:20;;;;;;;31.90;17.95;;;;;;;2.79;70.59;100468.44;4444219;32;34207;-72
2022/12/02 08:11:48;;;;;;;28.05;16.52;;;;;;;3.07;70.25;100482.09;4423129;32;33171;-72
2022/12/02 08:14:15;;;;;;;31.98;18.42;;;;;;;3.15;69.61;100478.50;4437887;32;33868;-73
2022/12/02 08:16:43;;;;;;;30.92;17.08;;;;;;;3.56;67.92;100478.06;4437798;32;34546;-76
2022/12/02 08:19:10;;;;;;;29.37;17.17;;;;;;;3.13;69.16;100475.16;4439256;32;33678;-74
2022/12/02 08:21:39;;;;;;;27.42;16.58;;;;;;;3.35;68.12;100476.12;4448362;32;32244;-75
2022/12/02 08:24:07;;;;;;;30.60;17.98;;;;;;;2.97;69.71;100472.66;4468879;32;34728;-74
2022/12/02 08:26:34;;;;;;;32.13;17.55;;;;;;;2.91;70.13;100478.72;4454786;32;34012;-73
2022/12/02 08:29:02;;;;;;;34.08;20.02;;;;;;;3.10;69.27;100486.25;4449423;32;33152;-76
2022/12/02 08:31:29;;;;;;;31.77;18.40;;;;;;;2.84;69.50;100478.63;4438364;32;33350;-80
2022/12/02 08:33:57;;;;;;;31.58;18.62;;;;;;;3.31;68.45;100480.19;4453326;32;35035;-73
2022/12/02 08:36:33;;;;;;;33.00;20.10;;;;;;;2.97;69.56;100483.38;4442214;32;34284;-78
2022/12/02 08:39:04;;;;;;;33.83;18.95;;;;;;;2.97;70.02;100484.19;4454127;32;33739;-84
2022/12/02 08:41:33;;;;;;;9.73;6.18;;;;;;;3.24;69.52;100479.25;4455153;32;34471;-77
2022/12/02 08:44:01;;;;;;;31.50;19.08;;;;;;;3.17;69.80;100481.81;4453379;32;34152;-73
2022/12/02 08:46:29;;;;;;;31.83;16.95;;;;;;;2.79;71.16;100478.34;4454864;32;34120;-78
2022/12/02 08:48:56;;;;;;;30.98;18.05;;;;;;;3.14;70.46;100481.37;4465978;32;33839;-80
2022/12/02 08:51:24;;;;;;;32.05;17.73;;;;;;;3.30;69.78;100483.88;4442028;32;33163;-81
2022/12/02 08:53:52;;;;;;;32.63;18.12;;;;;;;3.23;69.81;100480.28;4454174;32;34226;-80
2022/12/02 08:56:19;;;;;;;29.50;17.50;;;;;;;2.95;71.62;100483.53;4468104;32;33943;-80
2022/12/02 08:58:47;;;;;;;30.00;16.85;;;;;;;2.70;73.31;100479.38;4467494;32;33217;-80
2022/12/02 09:01:14;;;;;;;36.55;18.42;;;;;;;2.95;72.01;100480.84;4466209;32;34705;-79
2022/12/02 09:03:41;;;;;;;30.80;17.23;;;;;;;3.15;72.09;100480.34;4468383;32;34444;-81
2022/12/02 09:06:09;;;;;;;32.58;18.27;;;;;;;3.48;70.66;100487.06;4467463;32;33592;-79
2022/12/02 09:08:36;;;;;;;29.80;17.20;;;;;;;3.23;71.52;100489.16;4467999;32;33668;-80
2022/12/02 09:11:04;;;;;;;29.05;17.65;;;;;;;2.95;72.12;100480.84;4468181;32;34518;-78
2022/12/02 09:13:32;;;;;;;32.80;17.70;;;;;;;3.00;71.82;100483.00;4468029;32;34935;-80
2022/12/02 09:15:59;;;;;;;30.23;17.35;;;;;;;3.19;71.16;100481.66;4467926;32;34656;-79
2022/12/02 09:18:26;;;;;;;30.35;17.30;;;;;;;3.40;70.47;100484.44;4466838;32;33659;-81
2022/12/02 09:20:54;;;;;;;31.50;17.98;;;;;;;3.41;70.36;100480.78;4463556;32;33657;-81
2022/12/02 09:23:21;;;;;;;31.05;17.70;;;;;;;3.51;69.55;100490.38;4452168;32;35346;-81
2022/12/02 09:25:49;;;;;;;31.52;18.30;;;;;;;3.04;70.56;100481.63;4452709;32;33806;-79
2022/12/02 09:28:16;;;;;;;31.05;16.73;;;;;;;3.47;69.77;100482.69;4438437;32;33333;-80
2022/12/02 09:30:44;;;;;;;39.08;19.95;;;;;;;3.59;69.62;100482.25;4438037;32;34476;-78
2022/12/02 09:33:11;;;;;;;31.45;18.52;;;;;;;3.73;68.47;100480.56;4452555;32;33695;-79
2022/12/02 09:35:39;;;;;;;36.65;19.08;;;;;;;3.09;70.73;100487.28;4439435;32;34369;-79
2022/12/02 09:38:07;;;;;;;32.80;17.92;;;;;;;3.26;70.19;100494.16;4451565;32;33536;-80
2022/12/02 09:40:35;;;;;;;30.33;17.42;;;;;;;3.44;69.37;100493.81;4452201;32;33961;-79
2022/12/02 09:43:03;;;;;;;29.10;16.75;;;;;;;3.39;69.36;100488.16;4452471;32;34604;-79
2022/12/02 09:45:31;;;;;;;32.00;16.67;;;;;;;3.05;70.41;100484.13;4439058;32;34352;-81
2022/12/02 09:48:00;;;;;;;29.63;16.42;;;;;;;3.25;69.94;100492.47;4452053;32;33452;-82
2022/12/02 09:50:28;;;;;;;28.38;16.37;;;;;;;3.12;70.51;100484.22;4452619;32;33945;-81
2022/12/02 09:52:59;;;;;;;31.48;18.00;;;;;;;3.27;71.28;100485.09;4466635;32;34031;-72
2022/12/02 09:55:26;;;;;;;31.58;18.45;;;;;;;3.19;70.67;100476.28;4468727;32;34574;-72
2022/12/02 09:57:54;;;;;;;33.70;19.37;;;;;;;3.15;71.22;100477.66;4468138;32;33517;-71
2022/12/02 10:00:22;;;;;;;32.10;18.50;;;;;;;2.99;72.22;100475.97;4464040;32;34051;-73
2022/12/02 10:02:51;;;;;;;33.30;18.75;;;;;;;2.79;73.58;100470.28;4456566;32;34886;-72
2022/12/02 10:05:26;;;;;;;35.40;18.48;;;;;;;3.14;73.01;100478.69;4453340;32;34621;-71
2022/12/02 10:07:56;;;;;;;33.50;18.70;;;;;;;3.30;72.30;100478.50;4458373;32;33219;-71
2022/12/02 10:10:28;;;;;;;5.82;3.28;;;;;;;2.83;74.95;100474.25;4467711;32;33897;-71
2022/12/02 10:12:57;;;;;;;32.60;19.12;;;;;;;3.32;73.56;100481.84;4454018;32;34987;-71
2022/12/02 10:15:30;;;;;;;29.85;17.77;;;;;;;3.68;72.32;100473.09;4461037;32;34309;-71
2022/12/02 10:18:09;;;;;;;31.02;17.60;;;;;;;3.63;72.28;100472.81;4452695;32;33532;-71
2022/12/02 10:20:36;;;;;;;32.67;18.65;;;;;;;3.79;71.24;100477.97;4449752;32;33985;-72
2022/12/02 10:23:20;;;;;;;35.38;19.40;;;;;;;3.69;72.67;100477.41;4447485;32;34650;-72
2022/12/02 10:25:57;;;;;;;32.10;18.90;;;;;;;3.73;71.87;100480.56;4454700;32;35221;-72
2022/12/02 10:28:30;;;;;;;30.67;18.75;;;;;;;3.87;70.46;100477.87;4468405;32;33330;-74
2022/12/02 10:31:07;;;;;;;33.13;19.17;;;;;;;3.92;70.17;100480.00;4468795;32;34804;-72
2022/12/02 10:33:38;;;;;;;31.92;18.58;;;;;;;3.33;73.65;100477.34;4458602;32;33952;-81
2022/12/02 10:36:05;;;;;;;15.75;9.68;;;;;;;3.38;72.31;100477.63;4452974;32;33778;-83
2022/12/02 10:38:40;;;;;;;32.35;19.45;;;;;;;3.39;73.15;100471.22;4446195;32;32803;-88
2022/12/02 10:41:13;;;;;;;30.50;16.98;;;;;;;3.39;73.39;100473.91;4441292;32;34025;-74
2022/12/02 10:43:42;;;;;;;36.65;20.12;;;;;;;3.82;72.65;100476.75;4452256;32;33993;-77
2022/12/02 10:46:13;;;;;;;37.05;19.67;;;;;;;3.48;74.73;100472.81;4452567;32;34153;-72
2022/12/02 10:48:40;;;;;;;34.45;20.17;;;;;;;4.10;71.36;100469.69;4464761;32;33804;-73
2022/12/02 10:51:12;;;;;;;34.47;19.02;;;;;;;3.70;73.75;100471.06;4454337;32;33737;-74
2022/12/02 10:53:40;;;;;;;33.20;19.50;;;;;;;3.62;73.58;100466.59;4453258;32;33933;-74
2022/12/02 10:56:15;;;;;;;34.10;19.45;;;;;;;3.48;74.09;100462.09;4437597;32;33748;-77
2022/12/02 10:58:42;;;;;;;;;;;;;;;3.66;73.68;100469.75;4437425;32;34778;-76
2022/12/02 11:01:11;;;;;;;32.28;18.65;;;;;;;3.85;73.04;100463.81;4437852;32;33886;-80
2022/12/02 11:03:39;;;;;;;36.28;19.15;;;;;;;4.25;72.29;100466.94;4452318;32;35079;-72
2022/12/02 11:06:15;;;;;;;35.25;20.20;;;;;;;4.59;70.38;100467.31;4453818;32;33972;-72
2022/12/02 11:08:43;;;;;;;34.85;19.60;;;;;;;4.32;71.27;100464.37;4467801;32;34486;-73
2022/12/02 11:11:38;;;;;;;33.00;19.23;;;;;;;4.35;71.30;100458.59;4441367;32;33229;-72
2022/12/02 11:14:11;;;;;;;34.45;20.23;;;;;;;4.17;72.61;100459.03;4427128;32;35161;-72
2022/12/02 11:16:38;;;;;;;37.72;19.87;;;;;;;3.74;74.03;100461.59;4447101;32;35038;-73
2022/12/02 11:19:39;;;;;;;35.38;19.98;;;;;;;4.05;72.63;100456.00;4467634;32;34474;-72
2022/12/02 11:23:07;;;;;;;33.75;20.10;;;;;;;3.59;74.09;100450.06;4454918;32;33901;-73
2022/12/02 11:25:47;;;;;;;39.20;21.17;;;;;;;3.87;73.63;100450.22;4446985;32;33046;-73
2022/12/02 11:28:18;;;;;;;35.97;21.12;;;;;;;4.00;74.05;100453.06;4461649;32;34005;-70
2022/12/02 11:30:46;;;;;;;34.67;20.45;;;;;;;3.72;74.62;100457.44;4448854;32;34255;-74
2022/12/02 11:33:43;;;;;;;36.97;20.90;;;;;;;3.69;75.25;100454.13;4427518;32;33923;-70